Latest Weather Observations for Leigh Creek

IDS60801

Issued at 3:41 pm CST Tuesday 20 April 2021 (issued every 10 minutes, with the page automatically refreshed every 10 minutes)

About weather observations | Map of weather stations | Latest weather observations for SA | Other Formats
Station Details ID: 017110 Name: LEIGH CREEK AIRPORT Lat: -30.60 Lon: 138.42 Height: 258.8 m
Data from the previous 72 hours. | See also: Recent months at Leigh Creek
Date/Time
CST
Temp
°C
App
Temp
°C
Dew
Point
°C
Rel
Hum
%
Delta-T
°C
Wind Press
QNH
hPa
Press
MSL
hPa
Rain since
9am
mm
Dir  Spd
km/h
Gust
km/h
Spd
kts
Gust
kts
20/03:30pm 24.1 17.1 -0.2 20 11.2 W 26 35 14 19 1015.5 1014.7 0.0
20/03:00pm 24.5 17.6 0.1 20 11.3 W 26 37 14 20 1015.6 1014.8 0.0
20/02:30pm 24.3 17.7 -0.1 20 11.3 WSW 24 39 13 21 1015.7 1014.9 0.0
20/02:00pm 24.3 18.6 0.6 21 11.1 W 20 33 11 18 1015.9 1015.1 0.0
20/01:30pm 23.4 17.8 1.1 23 10.5 SW 20 33 11 18 1016.1 1015.3 0.0
20/01:00pm 23.6 17.3 1.3 23 10.5 W 24 37 13 20 1016.4 1015.7 0.0
20/12:30pm 23.3 17.4 1.6 24 10.3 W 22 33 12 18 1017.1 1016.3 0.0
20/12:00pm 22.9 16.7 1.9 25 10.0 WNW 24 35 13 19 1017.7 1016.9 0.0
20/11:30am 22.6 16.7 1.6 25 9.9 WNW 22 32 12 17 1017.8 1017.0 0.0
20/11:00am 22.5 17.6 2.1 26 9.7 NNW 17 30 9 16 1018.0 1017.2 0.0
20/10:30am 21.7 17.5 1.9 27 9.3 NNW 13 20 7 11 1018.2 1017.4 0.0
20/10:00am 20.7 16.8 1.1 27 9.0 NW 11 19 6 10 1018.3 1017.5 0.0
20/09:30am 19.4 15.9 1.4 30 8.2 NW 9 13 5 7 1018.6 1017.8 0.0
20/09:00am 18.5 15.6 1.5 32 7.7 NW 6 9 3 5 1018.6 1017.8 0.0
20/08:30am 16.2 13.1 1.1 36 6.7 NW 7 9 4 5 1018.6 1017.8 0.0
20/08:00am 13.1 10.8 0.2 41 5.5 NW 2 9 1 5 1018.3 1017.5 0.0
20/07:30am 11.2 9.2 0.0 46 4.6 CALM 0 0 0 0 1017.9 1017.1 0.0
20/07:00am 10.0 8.0 -0.2 49 4.1 CALM 0 0 0 0 1017.5 1016.7 0.0
20/06:30am 8.8 5.3 -1.0 50 3.8 NW 7 9 4 5 1017.0 1016.2 0.0
20/06:00am 9.1 5.8 -1.0 49 4.0 NW 6 7 3 4 1016.9 1016.1 0.0
20/05:30am 9.5 6.2 -0.9 48 4.1 NW 6 9 3 5 1016.9 1016.1 0.0
20/05:00am 8.7 6.6 -1.1 50 3.8 CALM 0 0 0 0 1016.8 1016.0 0.0
20/04:30am 10.4 6.6 -0.7 46 4.5 NW 9 9 5 5 1016.3 1015.5 0.0
20/04:00am 9.7 6.2 -1.3 46 4.3 NW 7 9 4 5 1016.4 1015.7 0.0
20/03:30am 11.1 7.7 -0.4 45 4.7 NW 7 11 4 6 1016.7 1015.9 0.0
20/03:00am 10.6 8.5 -0.8 45 4.6 CALM 0 0 0 0 1016.8 1016.0 0.0
20/02:30am 10.9 8.8 -0.9 44 4.8 CALM 0 0 0 0 1016.8 1016.0 0.0
20/02:00am 11.9 9.5 -0.3 43 5.0 NW 2 7 1 4 1016.9 1016.1 0.0
20/01:30am 12.3 10.3 -0.2 42 5.2 CALM 0 0 0 0 1017.2 1016.4 0.0
20/01:00am 11.4 9.3 -1.0 42 5.0 CALM 0 0 0 0 1017.4 1016.6 0.0
20/12:30am 12.5 9.3 -0.4 41 5.3 NW 6 7 3 4 1017.4 1016.6 0.0
20/12:00am 12.4 9.5 -0.8 40 5.4 NW 4 9 2 5 1017.6 1016.8 0.0
 
Date/Time
CST
Temp
°C
App
Temp
°C
Dew
Point
°C
Rel
Hum
%
Delta-T
°C
Wind Press
QNH
hPa
Press
MSL
hPa
Rain since
9am
mm
Dir  Spd
km/h
Gust
km/h
Spd
kts
Gust
kts
19/11:30pm 12.7 10.2 -0.9 39 5.6 NW 2 6 1 3 1017.6 1016.8 0.0
19/11:00pm 12.6 9.2 -0.6 40 5.5 NW 7 9 4 5 1017.7 1016.9 0.0
19/10:30pm 12.5 8.2 -1.4 38 5.6 NW 11 13 6 7 1017.9 1017.1 0.0
19/10:00pm 13.2 9.3 -1.2 37 5.9 NW 9 11 5 6 1017.9 1017.1 0.0
19/09:30pm 13.9 11.4 -0.9 36 6.1 NW 2 7 1 4 1017.7 1016.9 0.0
19/09:00pm 15.2 13.2 -0.1 35 6.5 CALM 0 6 0 3 1017.8 1017.0 0.0
19/08:30pm 16.0 12.3 0.2 34 6.8 NW 9 11 5 6 1017.7 1016.9 0.0
19/08:00pm 16.3 12.6 0.0 33 7.1 NW 9 11 5 6 1017.6 1016.8 0.0
19/07:30pm 17.5 13.5 0.6 32 7.5 NW 11 13 6 7 1017.2 1016.4 0.0
19/07:00pm 18.4 16.5 0.5 30 8.0 CALM 0 0 0 0 1017.2 1016.4 0.0
19/06:30pm 19.0 17.0 0.1 28 8.4 CALM 0 0 0 0 1017.1 1016.3 0.0
19/06:00pm 19.9 16.8 -0.1 26 8.9 NW 6 7 3 4 1017.0 1016.2 0.0
19/05:30pm 21.0 16.6 0.2 25 9.4 NW 13 17 7 9 1017.0 1016.2 0.0
19/05:00pm 21.1 17.1 0.3 25 9.5 NW 11 17 6 9 1016.8 1016.0 0.0
19/04:30pm 22.1 17.4 0.6 24 9.9 N 15 20 8 11 1016.9 1016.1 0.0
19/04:00pm 21.8 17.1 0.9 25 9.7 NNW 15 20 8 11 1016.9 1016.1 0.0
19/03:30pm 22.4 19.9 1.4 25 9.8 N 4 15 2 8 1017.0 1016.2 0.0
19/03:00pm 22.3 18.0 1.3 25 9.8 NNW 13 20 7 11 1017.1 1016.3 0.0
19/02:30pm 22.4 17.7 0.9 24 10.0 NNW 15 22 8 12 1017.3 1016.5 0.0
19/02:00pm 22.5 18.3 1.5 25 9.9 N 13 22 7 12 1017.5 1016.7 0.0
19/01:30pm 22.0 17.7 1.1 25 9.7 NW 13 22 7 12 1018.0 1017.2 0.0
19/01:00pm 21.5 16.9 1.7 27 9.3 NNW 15 24 8 13 1018.5 1017.7 0.0
19/12:30pm 21.9 17.8 2.1 27 9.4 N 13 22 7 12 1019.1 1018.3 0.0
19/12:00pm 20.7 16.6 2.0 29 8.7 NNW 13 22 7 12 1019.7 1019.0 0.0
19/11:30am 20.9 16.8 2.2 29 8.8 NNW 13 20 7 11 1020.2 1019.5 0.0
19/11:00am 21.2 17.6 3.0 30 8.7 NNW 11 22 6 12 1020.7 1019.9 0.0
19/10:30am 19.8 15.4 2.6 32 8.1 NNW 15 24 8 13 1021.1 1020.3 0.0
19/10:00am 19.0 15.3 2.4 33 7.7 N 11 17 6 9 1021.3 1020.5 0.0
19/09:30am 18.4 15.6 2.3 34 7.4 SSW 6 11 3 6 1021.4 1020.6 0.0
19/09:00am 17.4 15.8 2.2 36 6.9 CALM 0 0 0 0 1021.6 1020.8 0.0
19/08:30am 15.3 13.8 2.8 43 5.7 CALM 0 0 0 0 1021.6 1020.8 0.0
19/08:00am 12.1 10.4 2.0 50 4.4 CALM 0 0 0 0 1021.4 1020.6 0.0
19/07:30am 9.7 5.8 0.9 54 3.6 SSW 11 13 6 7 1021.4 1020.6 0.0
19/07:00am 8.5 4.8 0.0 55 3.4 SSW 9 11 5 6 1021.1 1020.3 0.0
19/06:30am 8.7 5.4 0.4 56 3.4 SSW 7 9 4 5 1021.0 1020.2 0.0
19/06:00am 8.7 5.7 0.7 57 3.3 SSW 6 7 3 4 1020.9 1020.1 0.0
19/05:30am 7.7 4.5 -0.5 56 3.2 SSW 6 7 3 4 1020.5 1019.8 0.0
19/05:00am 8.0 4.6 -0.7 54 3.4 SSW 7 9 4 5 1020.4 1019.7 0.0
19/04:30am 7.8 4.0 -0.4 56 3.2 SSW 9 13 5 7 1020.5 1019.8 0.0
19/04:00am 7.3 3.0 -1.4 54 3.3 SSW 11 15 6 8 1020.5 1019.8 0.0
19/03:30am 9.2 5.5 -0.1 52 3.7 SSW 9 9 5 5 1020.7 1019.9 0.0
19/03:00am 9.8 7.5 0.2 51 3.9 SSW 2 9 1 5 1020.9 1020.1 0.0
19/02:30am 9.6 7.2 -0.3 50 4.0 SSW 2 6 1 3 1021.1 1020.3 0.0
19/02:00am 9.4 6.2 -0.8 49 4.1 SSW 6 9 3 5 1021.2 1020.4 0.0
19/01:30am 9.8 6.3 -1.3 46 4.4 SSW 7 9 4 5 1021.5 1020.7 0.0
19/01:00am 11.8 8.7 0.3 45 4.8 SSW 6 9 3 5 1021.6 1020.8 0.0
19/12:30am 12.2 10.3 0.6 45 4.9 CALM 0 0 0 0 1021.8 1021.0 0.0
19/12:00am 12.5 10.6 0.3 43 5.1 CALM 0 0 0 0 1021.8 1021.0 0.0
 
Date/Time
CST
Temp
°C
App
Temp
°C
Dew
Point
°C
Rel
Hum
%
Delta-T
°C
Wind Press
QNH
hPa
Press
MSL
hPa
Rain since
9am
mm
Dir  Spd
km/h
Gust
km/h
Spd
kts
Gust
kts
18/11:30pm 12.8 9.7 0.2 42 5.3 SSW 6 7 3 4 1022.1 1021.3 0.0
18/11:00pm 12.2 8.1 0.0 43 5.1 SSW 11 13 6 7 1022.2 1021.4 0.0
18/10:30pm 12.6 8.9 0.0 42 5.3 SSW 9 9 5 5 1022.5 1021.7 0.0
18/10:00pm 13.6 11.7 0.3 40 5.7 CALM 0 7 0 4 1022.8 1022.0 0.0
18/09:30pm 14.0 10.7 0.3 39 5.8 SSW 7 9 4 5 1022.8 1022.0 0.0
18/09:00pm 14.5 10.7 -0.8 35 6.4 SSW 9 13 5 7 1023.0 1022.2 0.0
18/08:30pm 15.7 12.0 -0.1 34 6.8 SSW 9 11 5 6 1023.0 1022.2 0.0
18/08:00pm 16.2 11.7 -0.1 33 7.0 SSW 13 15 7 8 1022.8 1022.0 0.0
18/07:30pm 16.8 12.2 -0.9 30 7.5 SSW 13 17 7 9 1022.9 1022.1 0.0
18/07:00pm 17.5 12.2 -0.7 29 7.9 SSW 17 20 9 11 1022.7 1021.9 0.0
18/06:30pm 18.2 12.6 -0.1 29 8.0 SSW 19 24 10 13 1022.4 1021.6 0.0
18/06:00pm 19.0 12.9 0.6 29 8.2 SW 22 32 12 17 1022.1 1021.3 0.0
18/05:30pm 20.3 13.9 1.2 28 8.7 SW 24 32 13 17 1022.0 1021.2 0.0
18/05:00pm 21.5 16.4 0.7 25 9.6 SSW 17 24 9 13 1021.9 1021.1 0.0
18/04:30pm 21.6 15.9 -0.4 23 9.9 SW 19 28 10 15 1021.8 1021.0 0.0
18/04:00pm 22.1 17.3 0.0 23 10.1 S 15 22 8 12 1021.9 1021.1 0.0
18/03:30pm 21.9 16.6 -0.8 22 10.1 WSW 17 24 9 13 1022.0 1021.2 0.0
18/03:00pm 21.9 16.9 -1.4 21 10.3 SW 15 24 8 13 1022.1 1021.3 0.0
18/02:30pm 22.2 17.6 -1.1 21 10.4 SSW 13 19 7 10 1022.3 1021.5 0.0
18/02:00pm 22.2 17.2 -1.1 21 10.4 SSW 15 24 8 13 1022.6 1021.8 0.0
18/01:30pm 21.3 16.7 -1.3 22 9.9 SW 13 22 7 12 1023.0 1022.2 0.0
18/01:00pm 21.5 17.7 -1.1 22 10.0 SSW 9 19 5 10 1023.5 1022.8 0.0
18/12:30pm 21.3 16.8 -0.1 24 9.6 WSW 13 24 7 13 1024.0 1023.3 0.0
18/12:00pm 20.3 15.2 0.7 27 8.9 SSW 17 26 9 14 1024.5 1023.8 0.0
18/11:30am 20.4 15.8 1.3 28 8.8 S 15 24 8 13 1025.2 1024.4 0.0
18/11:00am 20.0 15.8 1.9 30 8.4 S 13 22 7 12 1025.5 1024.7 0.0
18/10:30am 18.8 14.9 1.3 31 7.9 S 11 17 6 9 1025.8 1025.0 0.0
18/10:00am 18.5 14.3 1.5 32 7.7 SE 13 22 7 12 1025.9 1025.1 0.0
18/09:30am 18.3 13.4 2.2 34 7.4 ESE 17 24 9 13 1026.1 1025.3 0.0
18/09:00am 17.1 12.2 1.9 36 6.9 ESE 17 24 9 13 1026.2 1025.4 0.0
18/08:30am 15.5 11.8 2.3 41 5.9 S 11 17 6 9 1026.2 1025.4 0.0
18/08:00am 13.1 11.5 2.4 48 4.7 CALM 0 0 0 0 1026.1 1025.3 0.0
18/07:30am 10.5 7.7 2.1 56 3.6 SSW 6 7 3 4 1026.0 1025.2 0.0
18/07:00am 9.2 7.1 1.6 59 3.2 SSW 2 9 1 5 1025.7 1024.9 0.0
18/06:30am 8.5 6.7 1.2 60 3.0 CALM 0 0 0 0 1025.6 1024.8 0.0
18/06:00am 7.7 5.9 1.1 63 2.7 CALM 0 0 0 0 1025.5 1024.7 0.0
18/05:30am 9.3 7.6 1.7 59 3.2 CALM 0 7 0 4 1025.7 1024.9 0.0
18/05:00am 9.4 7.7 1.6 58 3.3 CALM 0 0 0 0 1025.5 1024.7 0.0
18/04:30am 9.2 7.5 2.1 61 3.0 CALM 0 0 0 0 1025.4 1024.6 0.0
18/04:00am 9.2 6.2 1.1 57 3.4 SSW 6 7 3 4 1025.3 1024.5 0.0
18/03:30am 9.4 7.8 2.3 61 3.0 CALM 0 0 0 0 1025.4 1024.6 0.0
18/03:00am 10.3 8.6 1.7 55 3.6 CALM 0 0 0 0 1025.5 1024.7 0.0
18/02:30am 9.7 8.1 2.6 61 3.1 CALM 0 0 0 0 1025.6 1024.8 0.0
18/02:00am 9.9 6.9 2.0 58 3.4 SSW 7 9 4 5 1025.7 1024.9 0.0
18/01:30am 11.9 9.3 3.4 56 3.8 SSW 6 9 3 5 1025.8 1025.0 0.0
18/01:00am 11.6 9.0 3.4 57 3.7 SSW 6 7 3 4 1025.8 1025.0 0.0
18/12:30am 13.0 11.8 4.4 56 4.0 CALM 0 0 0 0 1025.8 1025.0 0.0
18/12:00am 13.6 11.1 4.5 54 4.2 SSW 7 11 4 6 1025.6 1024.8 0.0
 
Date/Time
CST
Temp
°C
App
Temp
°C
Dew
Point
°C
Rel
Hum
%
Delta-T
°C
Wind Press
QNH
hPa
Press
MSL
hPa
Rain since
9am
mm
Dir  Spd
km/h
Gust
km/h
Spd
kts
Gust
kts
17/11:30pm 14.3 11.4 4.6 52 4.5 SSW 9 13 5 7 1025.9 1025.1 0.0
17/11:00pm 14.7 10.3 4.7 51 4.7 SSW 17 20 9 11 1026.0 1025.2 0.0
17/10:30pm 14.8 11.1 4.2 49 4.9 SSW 13 17 7 9 1026.2 1025.4 0.0
17/10:00pm 15.2 10.7 4.3 48 5.1 SSW 17 20 9 11 1026.2 1025.4 0.0
17/09:30pm 15.8 10.9 4.2 46 5.4 SSW 19 24 10 13 1026.2 1025.4 0.0
17/09:00pm 16.7 11.7 4.4 44 5.8 SSW 20 26 11 14 1026.3 1025.5 0.0
17/08:30pm 17.4 12.0 4.4 42 6.2 SSW 22 28 12 15 1026.2 1025.4 0.0
17/08:00pm 17.5 12.9 3.8 40 6.5 SSW 17 24 9 13 1025.8 1025.0 0.0
17/07:30pm 18.1 13.4 3.2 37 7.0 SSW 17 20 9 11 1025.7 1024.9 0.0
17/07:00pm 18.9 13.2 3.1 35 7.5 SSW 22 28 12 15 1025.4 1024.6 0.0
17/06:30pm 19.3 13.6 3.1 34 7.6 SSW 22 26 12 14 1025.1 1024.3 0.0
17/06:00pm 19.9 14.6 3.2 33 7.9 SSW 20 30 11 16 1025.1 1024.3 0.0
17/05:30pm 20.9 14.1 3.2 31 8.5 SSW 28 37 15 20 1024.7 1023.9 0.0
17/05:00pm 21.5 15.0 2.7 29 9.0 SSW 26 33 14 18 1024.4 1023.7 0.0
17/04:30pm 21.8 15.4 3.0 29 9.0 SSW 26 35 14 19 1024.2 1023.5 0.0
17/04:00pm 22.5 16.2 3.6 29 9.3 SSW 26 35 14 19 1024.1 1023.4 0.0

Other formats

Comma delimited format used in spreadsheet applications
http://www.bom.gov.au/fwo/IDS60801/IDS60801.94674.axf

JavaScript Object Notation format (JSON) in row-major order
http://www.bom.gov.au/fwo/IDS60801/IDS60801.94674.json

Data quality

Most of these data are generated automatically and are frequently updated. Quality checks on data are not normally performed. It is possible for incorrect values to appear. Refer to information at About Latest Weather Observations and please check the disclaimer before using these data.